Zenith Spirit — C6WZ7 — position and weather

sailwx.info

Track history (hours):
 
Tides and Currents Weather Stations Pressure Air Temp Water Temp Dewpoint Dewpoint Depression Visibility Wind Speed Wind Dir Waves Ship Positions

Zenith Spirit

Last reported at 2017-Dec-14 10:55 UTC. Time now 2017-Dec-17 17:26 UTC.
Position N 25°12' E 123°03'.

Length 274 m; draft 15.9 m.

Type: Tanker. MMSI: 308329000.

Date/timePositionNaut miles runAvg speedWind from/ knotsBaromVisibWave heightAir tempDewpointWater temp
2017-Dec-14 10:55N 25°12' E 123°03'512.7
2017-Dec-14 10:31N 25°07' E 123°02'612.7
2017-Dec-14 10:01N 25°01' E 122°59'612.9
2017-Dec-14 09:30N 24°55' E 122°57'713.4
2017-Dec-14 09:01N 24°48' E 122°55'714.5
2017-Dec-14 08:30N 24°41' E 122°52'714.5
2017-Dec-14 08:00N 24°34' E 122°50'714.4
2017-Dec-14 07:30N 24°28' E 122°48'713.8
2017-Dec-14 07:00N 24°21' E 122°45'713.7
2017-Dec-14 06:31N 24°15' E 122°43'713.4
2017-Dec-14 06:00N 24°08' E 122°41'613.0
2017-Dec-14 05:30N 24°02' E 122°38'612.6
2017-Dec-14 05:00N 23°56' E 122°36'612.8
2017-Dec-14 04:30N 23°50' E 122°34'713.0
2017-Dec-14 03:59N 23°43' E 122°33'8810.6
2017-Dec-13 19:45N 22°30' E 121°41'411.1
2017-Dec-13 19:24N 22°27' E 121°38'411.0
2017-Dec-13 19:00N 22°24' E 121°35'1111.8
2017-Dec-13 18:05N 22°15' E 121°27'112.0
2017-Dec-13 18:00N 22°14' E 121°27'712.0
2017-Dec-13 17:24N 22°08' E 121°23'712.1
2017-Dec-13 16:52N 22°03' E 121°18'  
2017-Dec-07 08:18N 01°17' E 104°00'0 0.2
2017-Dec-07 07:55N 01°17' E 104°00'  
Track history (hours):
 
Tides and Currents Weather Stations Pressure Air Temp Water Temp Dewpoint Dewpoint Depression Visibility Wind Speed Wind Dir Waves Ship Positions

Zenith Spirit

Last reported at 2017-Dec-14 10:55 UTC. Time now 2017-Dec-17 17:26 UTC.
Position N 25°12' E 123°03'.

Length 274 m; draft 15.9 m.

Type: Tanker. MMSI: 308329000.

Date/timePositionNaut miles runAvg speedWind from/ knotsBaromVisibWave heightAir tempDewpointWater temp
2017-Dec-14 10:55N 25°12' E 123°03'512.7
2017-Dec-14 10:31N 25°07' E 123°02'612.7
2017-Dec-14 10:01N 25°01' E 122°59'612.9
2017-Dec-14 09:30N 24°55' E 122°57'713.4
2017-Dec-14 09:01N 24°48' E 122°55'714.5
2017-Dec-14 08:30N 24°41' E 122°52'714.5
2017-Dec-14 08:00N 24°34' E 122°50'714.4
2017-Dec-14 07:30N 24°28' E 122°48'713.8
2017-Dec-14 07:00N 24°21' E 122°45'713.7
2017-Dec-14 06:31N 24°15' E 122°43'713.4
2017-Dec-14 06:00N 24°08' E 122°41'613.0
2017-Dec-14 05:30N 24°02' E 122°38'612.6
2017-Dec-14 05:00N 23°56' E 122°36'612.8
2017-Dec-14 04:30N 23°50' E 122°34'713.0
2017-Dec-14 03:59N 23°43' E 122°33'8810.6
2017-Dec-13 19:45N 22°30' E 121°41'411.1
2017-Dec-13 19:24N 22°27' E 121°38'411.0
2017-Dec-13 19:00N 22°24' E 121°35'1111.8
2017-Dec-13 18:05N 22°15' E 121°27'112.0
2017-Dec-13 18:00N 22°14' E 121°27'712.0
2017-Dec-13 17:24N 22°08' E 121°23'712.1
2017-Dec-13 16:52N 22°03' E 121°18'  
2017-Dec-07 08:18N 01°17' E 104°00'0 0.2
2017-Dec-07 07:55N 01°17' E 104°00'  

Dump ship's entire track history